sensor_id;sensor_type;location;lat;lon;timestamp;temperature;humidity
66144;SHT31;52947;50.842;6.084;2022-07-22T00:01:34;18.48;77.22
66144;SHT31;52947;50.842;6.084;2022-07-22T00:04:03;18.58;76.47
66144;SHT31;52947;50.842;6.084;2022-07-22T00:06:31;18.67;75.88
66144;SHT31;52947;50.842;6.084;2022-07-22T00:09:00;18.33;76.83
66144;SHT31;52947;50.842;6.084;2022-07-22T00:11:28;18.31;77.13
66144;SHT31;52947;50.842;6.084;2022-07-22T00:13:56;18.34;76.17
66144;SHT31;52947;50.842;6.084;2022-07-22T00:16:24;18.27;76.84
66144;SHT31;52947;50.842;6.084;2022-07-22T00:18:52;18.43;75.85
66144;SHT31;52947;50.842;6.084;2022-07-22T00:21:20;18.60;75.94
66144;SHT31;52947;50.842;6.084;2022-07-22T00:23:48;18.36;75.62
66144;SHT31;52947;50.842;6.084;2022-07-22T00:26:17;18.40;75.61
66144;SHT31;52947;50.842;6.084;2022-07-22T00:28:45;18.37;76.16
66144;SHT31;52947;50.842;6.084;2022-07-22T00:31:13;18.50;75.86
66144;SHT31;52947;50.842;6.084;2022-07-22T00:33:42;18.76;76.25
66144;SHT31;52947;50.842;6.084;2022-07-22T00:36:10;18.82;75.40
66144;SHT31;52947;50.842;6.084;2022-07-22T00:38:38;18.60;75.81
66144;SHT31;52947;50.842;6.084;2022-07-22T00:41:06;18.71;75.94
66144;SHT31;52947;50.842;6.084;2022-07-22T00:43:56;18.61;76.44
66144;SHT31;52947;50.842;6.084;2022-07-22T00:46:25;18.75;76.52
66144;SHT31;52947;50.842;6.084;2022-07-22T00:48:54;19.08;75.32
66144;SHT31;52947;50.842;6.084;2022-07-22T00:51:23;19.08;75.06
66144;SHT31;52947;50.842;6.084;2022-07-22T00:53:52;18.88;75.37
66144;SHT31;52947;50.842;6.084;2022-07-22T00:56:20;18.78;74.90
66144;SHT31;52947;50.842;6.084;2022-07-22T00:58:50;18.92;75.30
66144;SHT31;52947;50.842;6.084;2022-07-22T01:01:20;18.78;75.01
66144;SHT31;52947;50.842;6.084;2022-07-22T01:03:49;18.55;76.31
66144;SHT31;52947;50.842;6.084;2022-07-22T01:06:26;18.57;76.03
66144;SHT31;52947;50.842;6.084;2022-07-22T01:08:54;18.73;75.57
66144;SHT31;52947;50.842;6.084;2022-07-22T01:11:23;18.76;75.46
66144;SHT31;52947;50.842;6.084;2022-07-22T01:13:53;18.81;75.59
66144;SHT31;52947;50.842;6.084;2022-07-22T01:16:23;18.65;75.04
66144;SHT31;52947;50.842;6.084;2022-07-22T01:18:51;18.45;75.77
66144;SHT31;52947;50.842;6.084;2022-07-22T01:21:21;18.45;76.80
66144;SHT31;52947;50.842;6.084;2022-07-22T01:23:49;18.57;75.98
66144;SHT31;52947;50.842;6.084;2022-07-22T01:26:17;18.67;75.65
66144;SHT31;52947;50.842;6.084;2022-07-22T01:28:45;18.34;76.68
66144;SHT31;52947;50.842;6.084;2022-07-22T01:31:13;18.23;76.05
66144;SHT31;52947;50.842;6.084;2022-07-22T01:33:41;18.18;76.71
66144;SHT31;52947;50.842;6.084;2022-07-22T01:36:09;18.07;77.48
66144;SHT31;52947;50.842;6.084;2022-07-22T01:38:39;18.16;76.32
66144;SHT31;52947;50.842;6.084;2022-07-22T01:41:09;18.01;77.61
66144;SHT31;52947;50.842;6.084;2022-07-22T01:43:38;18.01;76.46
66144;SHT31;52947;50.842;6.084;2022-07-22T01:46:06;17.99;76.63
66144;SHT31;52947;50.842;6.084;2022-07-22T01:48:39;17.89;76.81
66144;SHT31;52947;50.842;6.084;2022-07-22T01:51:07;17.92;77.42
66144;SHT31;52947;50.842;6.084;2022-07-22T01:53:37;18.00;75.62
66144;SHT31;52947;50.842;6.084;2022-07-22T01:56:07;17.87;74.79
66144;SHT31;52947;50.842;6.084;2022-07-22T01:58:43;17.73;75.32
66144;SHT31;52947;50.842;6.084;2022-07-22T02:01:12;17.73;75.33
66144;SHT31;52947;50.842;6.084;2022-07-22T02:03:40;17.86;74.80
66144;SHT31;52947;50.842;6.084;2022-07-22T02:06:08;17.86;75.53
66144;SHT31;52947;50.842;6.084;2022-07-22T02:08:37;17.92;73.18
66144;SHT31;52947;50.842;6.084;2022-07-22T02:11:20;17.87;72.75
66144;SHT31;52947;50.842;6.084;2022-07-22T02:13:52;17.73;73.23
66144;SHT31;52947;50.842;6.084;2022-07-22T02:16:20;17.68;74.03
66144;SHT31;52947;50.842;6.084;2022-07-22T02:18:50;17.68;73.73
66144;SHT31;52947;50.842;6.084;2022-07-22T02:21:19;17.73;74.48
66144;SHT31;52947;50.842;6.084;2022-07-22T02:23:49;17.82;75.04
66144;SHT31;52947;50.842;6.084;2022-07-22T02:26:17;17.78;74.12
66144;SHT31;52947;50.842;6.084;2022-07-22T02:28:47;17.85;72.79
66144;SHT31;52947;50.842;6.084;2022-07-22T02:31:15;17.94;73.97
66144;SHT31;52947;50.842;6.084;2022-07-22T02:33:43;17.99;73.44
66144;SHT31;52947;50.842;6.084;2022-07-22T02:36:11;18.07;73.37
66144;SHT31;52947;50.842;6.084;2022-07-22T02:38:39;18.07;74.20
66144;SHT31;52947;50.842;6.084;2022-07-22T02:41:09;18.16;73.58
66144;SHT31;52947;50.842;6.084;2022-07-22T02:43:42;18.17;72.34
66144;SHT31;52947;50.842;6.084;2022-07-22T02:46:12;18.18;73.57
66144;SHT31;52947;50.842;6.084;2022-07-22T02:48:41;18.16;74.27
66144;SHT31;52947;50.842;6.084;2022-07-22T02:51:12;18.20;73.56
66144;SHT31;52947;50.842;6.084;2022-07-22T02:53:40;18.36;74.13
66144;SHT31;52947;50.842;6.084;2022-07-22T02:56:08;18.47;72.77
66144;SHT31;52947;50.842;6.084;2022-07-22T02:58:36;18.14;73.20
66144;SHT31;52947;50.842;6.084;2022-07-22T03:01:04;18.16;74.29
66144;SHT31;52947;50.842;6.084;2022-07-22T03:03:43;18.00;73.50
66144;SHT31;52947;50.842;6.084;2022-07-22T03:06:11;18.06;74.26
66144;SHT31;52947;50.842;6.084;2022-07-22T03:08:45;18.00;74.74
66144;SHT31;52947;50.842;6.084;2022-07-22T03:11:13;17.99;72.41
66144;SHT31;52947;50.842;6.084;2022-07-22T03:13:41;18.06;73.86
66144;SHT31;52947;50.842;6.084;2022-07-22T03:16:10;18.04;72.50
66144;SHT31;52947;50.842;6.084;2022-07-22T03:18:38;17.96;72.09
66144;SHT31;52947;50.842;6.084;2022-07-22T03:21:07;17.73;73.55
66144;SHT31;52947;50.842;6.084;2022-07-22T03:23:35;17.68;74.06
66144;SHT31;52947;50.842;6.084;2022-07-22T03:26:03;17.48;74.86
66144;SHT31;52947;50.842;6.084;2022-07-22T03:28:31;17.66;75.01
66144;SHT31;52947;50.842;6.084;2022-07-22T03:30:59;17.53;75.13
66144;SHT31;52947;50.842;6.084;2022-07-22T03:33:27;17.43;76.30
66144;SHT31;52947;50.842;6.084;2022-07-22T03:35:56;17.32;76.94
66144;SHT31;52947;50.842;6.084;2022-07-22T03:38:25;17.24;77.45
66144;SHT31;52947;50.842;6.084;2022-07-22T03:40:53;17.11;78.37
66144;SHT31;52947;50.842;6.084;2022-07-22T03:43:22;17.32;77.47
66144;SHT31;52947;50.842;6.084;2022-07-22T03:45:50;17.39;77.64
66144;SHT31;52947;50.842;6.084;2022-07-22T03:48:18;17.32;77.37
66144;SHT31;52947;50.842;6.084;2022-07-22T03:50:46;17.18;78.96
66144;SHT31;52947;50.842;6.084;2022-07-22T03:53:16;17.08;79.10
66144;SHT31;52947;50.842;6.084;2022-07-22T03:55:45;17.18;78.90
66144;SHT31;52947;50.842;6.084;2022-07-22T03:58:13;17.19;79.02
66144;SHT31;52947;50.842;6.084;2022-07-22T04:00:41;17.32;78.11
66144;SHT31;52947;50.842;6.084;2022-07-22T04:03:09;17.29;78.79
66144;SHT31;52947;50.842;6.084;2022-07-22T04:05:52;17.34;78.63
66144;SHT31;52947;50.842;6.084;2022-07-22T04:08:38;17.48;78.39
66144;SHT31;52947;50.842;6.084;2022-07-22T04:11:08;17.31;78.89
66144;SHT31;52947;50.842;6.084;2022-07-22T04:13:36;17.35;78.80
66144;SHT31;52947;50.842;6.084;2022-07-22T04:16:05;17.28;79.55
66144;SHT31;52947;50.842;6.084;2022-07-22T04:18:33;17.24;79.40
66144;SHT31;52947;50.842;6.084;2022-07-22T04:21:02;17.35;79.31
66144;SHT31;52947;50.842;6.084;2022-07-22T04:23:29;17.24;79.19
66144;SHT31;52947;50.842;6.084;2022-07-22T04:26:08;17.28;79.79
66144;SHT31;52947;50.842;6.084;2022-07-22T04:28:36;17.25;79.91
66144;SHT31;52947;50.842;6.084;2022-07-22T04:31:04;17.25;79.34
66144;SHT31;52947;50.842;6.084;2022-07-22T04:33:35;17.10;79.26
66144;SHT31;52947;50.842;6.084;2022-07-22T04:36:04;17.07;79.65
66144;SHT31;52947;50.842;6.084;2022-07-22T04:38:33;17.04;80.50
66144;SHT31;52947;50.842;6.084;2022-07-22T04:41:04;17.17;79.75
66144;SHT31;52947;50.842;6.084;2022-07-22T04:43:33;17.10;79.76
66144;SHT31;52947;50.842;6.084;2022-07-22T04:46:06;17.17;79.55
66144;SHT31;52947;50.842;6.084;2022-07-22T04:48:38;17.17;79.60
66144;SHT31;52947;50.842;6.084;2022-07-22T04:51:06;17.18;79.75
66144;SHT31;52947;50.842;6.084;2022-07-22T04:53:35;17.15;80.03
66144;SHT31;52947;50.842;6.084;2022-07-22T04:56:15;17.27;79.38
66144;SHT31;52947;50.842;6.084;2022-07-22T04:58:46;17.14;79.59
66144;SHT31;52947;50.842;6.084;2022-07-22T05:01:14;17.24;79.07
66144;SHT31;52947;50.842;6.084;2022-07-22T05:03:45;17.41;78.70
66144;SHT31;52947;50.842;6.084;2022-07-22T05:06:14;17.21;79.08
66144;SHT31;52947;50.842;6.084;2022-07-22T05:08:43;17.15;79.62
66144;SHT31;52947;50.842;6.084;2022-07-22T05:11:11;17.17;79.83
66144;SHT31;52947;50.842;6.084;2022-07-22T05:13:39;17.12;79.87
66144;SHT31;52947;50.842;6.084;2022-07-22T05:16:10;17.25;79.45
66144;SHT31;52947;50.842;6.084;2022-07-22T05:18:39;17.36;78.81
66144;SHT31;52947;50.842;6.084;2022-07-22T05:21:11;17.58;78.74
66144;SHT31;52947;50.842;6.084;2022-07-22T05:23:40;17.83;77.83
66144;SHT31;52947;50.842;6.084;2022-07-22T05:26:11;17.73;78.25
66144;SHT31;52947;50.842;6.084;2022-07-22T05:28:39;17.75;77.51
66144;SHT31;52947;50.842;6.084;2022-07-22T05:31:07;17.70;77.31
66144;SHT31;52947;50.842;6.084;2022-07-22T05:33:38;17.76;76.54
66144;SHT31;52947;50.842;6.084;2022-07-22T05:36:29;17.68;74.50
66144;SHT31;52947;50.842;6.084;2022-07-22T05:38:57;17.79;75.86
66144;SHT31;52947;50.842;6.084;2022-07-22T05:41:27;17.83;74.82
66144;SHT31;52947;50.842;6.084;2022-07-22T05:43:55;17.70;72.52
66144;SHT31;52947;50.842;6.084;2022-07-22T05:46:23;17.75;71.35
66144;SHT31;52947;50.842;6.084;2022-07-22T05:48:53;17.86;74.24
66144;SHT31;52947;50.842;6.084;2022-07-22T05:51:22;17.96;73.30
66144;SHT31;52947;50.842;6.084;2022-07-22T05:53:51;17.87;72.72
66144;SHT31;52947;50.842;6.084;2022-07-22T05:56:18;18.01;72.15
66144;SHT31;52947;50.842;6.084;2022-07-22T05:58:47;18.07;73.28
66144;SHT31;52947;50.842;6.084;2022-07-22T06:01:15;18.24;73.15
66144;SHT31;52947;50.842;6.084;2022-07-22T06:03:43;18.14;71.78
66144;SHT31;52947;50.842;6.084;2022-07-22T06:06:15;18.52;71.98
66144;SHT31;52947;50.842;6.084;2022-07-22T06:08:45;18.51;70.01
66144;SHT31;52947;50.842;6.084;2022-07-22T06:11:19;18.41;70.08
66144;SHT31;52947;50.842;6.084;2022-07-22T06:13:47;18.65;72.09
66144;SHT31;52947;50.842;6.084;2022-07-22T06:16:18;18.76;70.59
66144;SHT31;52947;50.842;6.084;2022-07-22T06:18:50;19.02;70.10
66144;SHT31;52947;50.842;6.084;2022-07-22T06:21:19;19.09;67.34
66144;SHT31;52947;50.842;6.084;2022-07-22T06:23:48;19.01;68.22
66144;SHT31;52947;50.842;6.084;2022-07-22T06:26:16;19.08;67.75
66144;SHT31;52947;50.842;6.084;2022-07-22T06:28:44;19.05;69.15
66144;SHT31;52947;50.842;6.084;2022-07-22T06:31:12;19.08;68.83
66144;SHT31;52947;50.842;6.084;2022-07-22T06:33:41;19.20;68.67
66144;SHT31;52947;50.842;6.084;2022-07-22T06:36:09;19.15;67.53
66144;SHT31;52947;50.842;6.084;2022-07-22T06:38:39;19.13;68.12
66144;SHT31;52947;50.842;6.084;2022-07-22T06:41:19;19.62;66.42
66144;SHT31;52947;50.842;6.084;2022-07-22T06:44:03;20.14;66.37
66144;SHT31;52947;50.842;6.084;2022-07-22T06:46:45;20.15;64.97
66144;SHT31;52947;50.842;6.084;2022-07-22T06:49:16;19.88;65.21
66144;SHT31;52947;50.842;6.084;2022-07-22T06:51:45;19.88;65.83
66144;SHT31;52947;50.842;6.084;2022-07-22T06:54:14;19.73;66.18
66144;SHT31;52947;50.842;6.084;2022-07-22T06:56:42;19.11;68.17
66144;SHT31;52947;50.842;6.084;2022-07-22T06:59:15;19.34;68.26
66144;SHT31;52947;50.842;6.084;2022-07-22T07:01:43;19.56;68.28
66144;SHT31;52947;50.842;6.084;2022-07-22T07:04:12;19.49;68.05
66144;SHT31;52947;50.842;6.084;2022-07-22T07:06:42;19.64;68.11
66144;SHT31;52947;50.842;6.084;2022-07-22T07:09:17;20.01;66.18
66144;SHT31;52947;50.842;6.084;2022-07-22T07:11:59;20.62;64.70
66144;SHT31;52947;50.842;6.084;2022-07-22T07:14:46;21.94;61.36
66144;SHT31;52947;50.842;6.084;2022-07-22T07:17:34;21.31;61.65
66144;SHT31;52947;50.842;6.084;2022-07-22T07:20:06;21.31;62.26
66144;SHT31;52947;50.842;6.084;2022-07-22T07:22:34;20.97;62.89
66144;SHT31;52947;50.842;6.084;2022-07-22T07:25:06;20.53;64.23
66144;SHT31;52947;50.842;6.084;2022-07-22T07:27:51;20.44;63.57
66144;SHT31;52947;50.842;6.084;2022-07-22T07:30:30;20.24;63.05
66144;SHT31;52947;50.842;6.084;2022-07-22T07:32:58;20.07;64.57
66144;SHT31;52947;50.842;6.084;2022-07-22T07:35:27;20.07;65.12
66144;SHT31;52947;50.842;6.084;2022-07-22T07:37:58;20.04;63.30
66144;SHT31;52947;50.842;6.084;2022-07-22T07:40:27;20.39;63.50
66144;SHT31;52947;50.842;6.084;2022-07-22T07:42:56;20.51;62.23
66144;SHT31;52947;50.842;6.084;2022-07-22T07:45:29;21.51;60.92
66144;SHT31;52947;50.842;6.084;2022-07-22T07:47:57;21.41;59.61
66144;SHT31;52947;50.842;6.084;2022-07-22T07:50:26;21.85;59.31
66144;SHT31;52947;50.842;6.084;2022-07-22T07:52:56;22.36;59.21
66144;SHT31;52947;50.842;6.084;2022-07-22T07:55:25;23.19;56.93
66144;SHT31;52947;50.842;6.084;2022-07-22T07:57:55;22.70;56.48
66144;SHT31;52947;50.842;6.084;2022-07-22T08:00:25;21.79;57.93
66144;SHT31;52947;50.842;6.084;2022-07-22T08:02:55;21.75;58.95
66144;SHT31;52947;50.842;6.084;2022-07-22T08:05:27;21.98;59.17
66144;SHT31;52947;50.842;6.084;2022-07-22T08:07:57;21.96;58.83
66144;SHT31;52947;50.842;6.084;2022-07-22T08:10:26;21.71;59.11
66144;SHT31;52947;50.842;6.084;2022-07-22T08:13:37;21.82;59.22
66144;SHT31;52947;50.842;6.084;2022-07-22T08:16:17;21.55;59.51
66144;SHT31;52947;50.842;6.084;2022-07-22T08:18:47;22.01;59.19
66144;SHT31;52947;50.842;6.084;2022-07-22T08:21:16;21.68;59.12
66144;SHT31;52947;50.842;6.084;2022-07-22T08:23:54;22.15;58.04
66144;SHT31;52947;50.842;6.084;2022-07-22T08:26:22;22.13;57.65
66144;SHT31;52947;50.842;6.084;2022-07-22T08:28:58;21.94;58.32
66144;SHT31;52947;50.842;6.084;2022-07-22T08:31:29;21.88;58.82
66144;SHT31;52947;50.842;6.084;2022-07-22T08:34:00;22.10;58.38
66144;SHT31;52947;50.842;6.084;2022-07-22T08:36:28;21.81;59.09
66144;SHT31;52947;50.842;6.084;2022-07-22T08:38:56;22.06;58.53
66144;SHT31;52947;50.842;6.084;2022-07-22T08:41:25;21.79;60.07
66144;SHT31;52947;50.842;6.084;2022-07-22T08:43:54;21.84;59.18
66144;SHT31;52947;50.842;6.084;2022-07-22T08:46:27;22.74;57.30
66144;SHT31;52947;50.842;6.084;2022-07-22T08:49:14;23.00;56.64
66144;SHT31;52947;50.842;6.084;2022-07-22T08:52:03;23.38;55.53
66144;SHT31;52947;50.842;6.084;2022-07-22T08:54:41;23.58;55.27
66144;SHT31;52947;50.842;6.084;2022-07-22T08:57:11;23.79;55.35
66144;SHT31;52947;50.842;6.084;2022-07-22T08:59:49;24.85;52.62
66144;SHT31;52947;50.842;6.084;2022-07-22T09:02:19;25.23;51.62
66144;SHT31;52947;50.842;6.084;2022-07-22T09:04:53;25.19;51.45
66144;SHT31;52947;50.842;6.084;2022-07-22T09:07:28;26.10;48.29
66144;SHT31;52947;50.842;6.084;2022-07-22T09:10:06;26.04;49.24
66144;SHT31;52947;50.842;6.084;2022-07-22T09:12:55;25.12;50.56
66144;SHT31;52947;50.842;6.084;2022-07-22T09:15:48;24.87;51.17
66144;SHT31;52947;50.842;6.084;2022-07-22T09:18:46;24.50;52.04
66144;SHT31;52947;50.842;6.084;2022-07-22T09:21:46;23.79;53.51
66144;SHT31;52947;50.842;6.084;2022-07-22T09:24:29;23.80;53.58
66144;SHT31;52947;50.842;6.084;2022-07-22T09:27:06;23.97;53.97
66144;SHT31;52947;50.842;6.084;2022-07-22T09:29:53;24.17;53.20
66144;SHT31;52947;50.842;6.084;2022-07-22T09:32:38;24.12;54.48
66144;SHT31;52947;50.842;6.084;2022-07-22T09:35:28;24.60;53.68
66144;SHT31;52947;50.842;6.084;2022-07-22T09:37:58;24.56;53.36
66144;SHT31;52947;50.842;6.084;2022-07-22T09:40:29;24.38;53.56
66144;SHT31;52947;50.842;6.084;2022-07-22T09:42:59;24.99;52.12
66144;SHT31;52947;50.842;6.084;2022-07-22T09:45:28;25.42;51.00
66144;SHT31;52947;50.842;6.084;2022-07-22T09:47:57;26.07;50.36
66144;SHT31;52947;50.842;6.084;2022-07-22T09:50:59;26.86;49.27
66144;SHT31;52947;50.842;6.084;2022-07-22T09:53:34;27.04;48.96
66144;SHT31;52947;50.842;6.084;2022-07-22T09:56:08;25.70;50.36
66144;SHT31;52947;50.842;6.084;2022-07-22T09:58:37;25.39;51.06
66144;SHT31;52947;50.842;6.084;2022-07-22T10:01:21;26.01;50.81
66144;SHT31;52947;50.842;6.084;2022-07-22T10:03:51;26.52;48.97
66144;SHT31;52947;50.842;6.084;2022-07-22T10:06:23;27.10;48.52
66144;SHT31;52947;50.842;6.084;2022-07-22T10:08:53;26.47;49.35
66144;SHT31;52947;50.842;6.084;2022-07-22T10:11:31;26.18;50.43
66144;SHT31;52947;50.842;6.084;2022-07-22T10:14:00;26.24;49.69
66144;SHT31;52947;50.842;6.084;2022-07-22T10:16:29;26.69;48.86
66144;SHT31;52947;50.842;6.084;2022-07-22T10:18:57;27.10;48.87
66144;SHT31;52947;50.842;6.084;2022-07-22T10:21:33;27.50;48.33
66144;SHT31;52947;50.842;6.084;2022-07-22T10:24:10;26.58;49.34
66144;SHT31;52947;50.842;6.084;2022-07-22T10:26:49;27.74;47.03
66144;SHT31;52947;50.842;6.084;2022-07-22T10:29:28;28.29;46.95
66144;SHT31;52947;50.842;6.084;2022-07-22T10:32:22;28.08;47.61
66144;SHT31;52947;50.842;6.084;2022-07-22T10:35:25;27.00;48.68
66144;SHT31;52947;50.842;6.084;2022-07-22T10:38:02;26.04;50.93
66144;SHT31;52947;50.842;6.084;2022-07-22T10:40:31;25.49;52.51
66144;SHT31;52947;50.842;6.084;2022-07-22T10:43:04;25.86;51.24
66144;SHT31;52947;50.842;6.084;2022-07-22T10:45:35;27.36;48.93
66144;SHT31;52947;50.842;6.084;2022-07-22T10:48:05;28.48;46.60
66144;SHT31;52947;50.842;6.084;2022-07-22T10:50:47;29.13;44.47
66144;SHT31;52947;50.842;6.084;2022-07-22T10:53:19;29.57;43.74
66144;SHT31;52947;50.842;6.084;2022-07-22T10:55:59;29.59;44.73
66144;SHT31;52947;50.842;6.084;2022-07-22T10:58:46;29.85;44.14
66144;SHT31;52947;50.842;6.084;2022-07-22T11:01:16;29.54;44.79
66144;SHT31;52947;50.842;6.084;2022-07-22T11:03:47;28.96;46.32
66144;SHT31;52947;50.842;6.084;2022-07-22T11:06:21;28.35;46.58
66144;SHT31;52947;50.842;6.084;2022-07-22T11:08:53;28.39;46.45
66144;SHT31;52947;50.842;6.084;2022-07-22T11:11:32;29.57;44.91
66144;SHT31;52947;50.842;6.084;2022-07-22T11:14:01;30.19;43.01
66144;SHT31;52947;50.842;6.084;2022-07-22T11:16:29;29.99;43.27
66144;SHT31;52947;50.842;6.084;2022-07-22T11:18:58;29.32;44.73
66144;SHT31;52947;50.842;6.084;2022-07-22T11:21:28;29.93;43.20
66144;SHT31;52947;50.842;6.084;2022-07-22T11:23:59;29.78;42.93
66144;SHT31;52947;50.842;6.084;2022-07-22T11:26:34;30.52;43.05
66144;SHT31;52947;50.842;6.084;2022-07-22T11:29:03;30.59;41.36
66144;SHT31;52947;50.842;6.084;2022-07-22T11:31:31;30.08;43.46
66144;SHT31;52947;50.842;6.084;2022-07-22T11:34:07;28.06;45.94
66144;SHT31;52947;50.842;6.084;2022-07-22T11:36:37;27.36;48.19
66144;SHT31;52947;50.842;6.084;2022-07-22T11:39:08;27.14;48.34
66144;SHT31;52947;50.842;6.084;2022-07-22T11:41:37;27.39;48.45
66144;SHT31;52947;50.842;6.084;2022-07-22T11:44:05;28.42;45.59
66144;SHT31;52947;50.842;6.084;2022-07-22T11:46:37;29.15;45.23
66144;SHT31;52947;50.842;6.084;2022-07-22T11:49:06;28.42;45.49
66144;SHT31;52947;50.842;6.084;2022-07-22T11:51:37;27.84;46.56
66144;SHT31;52947;50.842;6.084;2022-07-22T11:54:07;28.38;45.42
66144;SHT31;52947;50.842;6.084;2022-07-22T11:56:35;28.39;45.37
66144;SHT31;52947;50.842;6.084;2022-07-22T11:59:04;28.70;45.45
66144;SHT31;52947;50.842;6.084;2022-07-22T12:01:34;28.74;45.99
66144;SHT31;52947;50.842;6.084;2022-07-22T12:04:04;28.62;45.47
66144;SHT31;52947;50.842;6.084;2022-07-22T12:06:34;27.80;46.87
66144;SHT31;52947;50.842;6.084;2022-07-22T12:09:09;28.29;45.52
66144;SHT31;52947;50.842;6.084;2022-07-22T12:11:39;28.79;45.27
66144;SHT31;52947;50.842;6.084;2022-07-22T12:14:09;28.84;45.06
66144;SHT31;52947;50.842;6.084;2022-07-22T12:16:43;28.56;45.05
66144;SHT31;52947;50.842;6.084;2022-07-22T12:19:13;28.39;45.88
66144;SHT31;52947;50.842;6.084;2022-07-22T12:21:50;28.66;45.92
66144;SHT31;52947;50.842;6.084;2022-07-22T12:24:28;27.84;47.29
66144;SHT31;52947;50.842;6.084;2022-07-22T12:26:57;27.95;46.38
66144;SHT31;52947;50.842;6.084;2022-07-22T12:29:27;28.00;45.65
66144;SHT31;52947;50.842;6.084;2022-07-22T12:31:57;27.87;46.96
66144;SHT31;52947;50.842;6.084;2022-07-22T12:34:34;28.18;47.00
66144;SHT31;52947;50.842;6.084;2022-07-22T12:37:13;27.72;46.84
66144;SHT31;52947;50.842;6.084;2022-07-22T12:39:58;28.56;44.99
66144;SHT31;52947;50.842;6.084;2022-07-22T12:42:28;27.62;47.49
66144;SHT31;52947;50.842;6.084;2022-07-22T12:45:02;28.26;46.41
66144;SHT31;52947;50.842;6.084;2022-07-22T12:47:55;27.94;46.69
66144;SHT31;52947;50.842;6.084;2022-07-22T12:50:27;26.49;49.18
66144;SHT31;52947;50.842;6.084;2022-07-22T12:52:57;26.49;50.32
66144;SHT31;52947;50.842;6.084;2022-07-22T12:55:46;26.16;50.54
66144;SHT31;52947;50.842;6.084;2022-07-22T12:58:15;25.74;50.69
66144;SHT31;52947;50.842;6.084;2022-07-22T13:00:48;26.79;49.68
66144;SHT31;52947;50.842;6.084;2022-07-22T13:03:17;27.41;49.03
66144;SHT31;52947;50.842;6.084;2022-07-22T13:05:46;27.61;47.55
66144;SHT31;52947;50.842;6.084;2022-07-22T13:08:14;27.31;48.66
66144;SHT31;52947;50.842;6.084;2022-07-22T13:10:43;27.33;48.55
66144;SHT31;52947;50.842;6.084;2022-07-22T13:13:12;26.44;49.30
66144;SHT31;52947;50.842;6.084;2022-07-22T13:15:40;26.11;50.24
66144;SHT31;52947;50.842;6.084;2022-07-22T13:18:08;25.16;52.46
66144;SHT31;52947;50.842;6.084;2022-07-22T13:20:36;26.01;50.77
66144;SHT31;52947;50.842;6.084;2022-07-22T13:23:04;26.68;49.65
66144;SHT31;52947;50.842;6.084;2022-07-22T13:25:33;26.41;50.03
66144;SHT31;52947;50.842;6.084;2022-07-22T13:28:01;26.41;50.71
66144;SHT31;52947;50.842;6.084;2022-07-22T13:30:31;26.68;49.67
66144;SHT31;52947;50.842;6.084;2022-07-22T13:32:59;26.85;49.85
66144;SHT31;52947;50.842;6.084;2022-07-22T13:35:27;26.38;49.40
66144;SHT31;52947;50.842;6.084;2022-07-22T13:37:56;27.00;48.88
66144;SHT31;52947;50.842;6.084;2022-07-22T13:40:24;26.63;49.44
66144;SHT31;52947;50.842;6.084;2022-07-22T13:42:52;27.04;48.79
66144;SHT31;52947;50.842;6.084;2022-07-22T13:45:20;26.98;49.71
66144;SHT31;52947;50.842;6.084;2022-07-22T13:47:50;26.72;49.72
66144;SHT31;52947;50.842;6.084;2022-07-22T13:50:17;27.24;48.70
66144;SHT31;52947;50.842;6.084;2022-07-22T13:52:45;27.20;47.97
66144;SHT31;52947;50.842;6.084;2022-07-22T13:55:14;27.46;47.61
66144;SHT31;52947;50.842;6.084;2022-07-22T13:57:43;26.69;49.45
66144;SHT31;52947;50.842;6.084;2022-07-22T14:00:11;26.48;49.72
66144;SHT31;52947;50.842;6.084;2022-07-22T14:02:42;26.59;49.28
66144;SHT31;52947;50.842;6.084;2022-07-22T14:05:12;26.34;50.80
66144;SHT31;52947;50.842;6.084;2022-07-22T14:07:41;26.00;50.44
66144;SHT31;52947;50.842;6.084;2022-07-22T14:10:09;26.21;49.35
66144;SHT31;52947;50.842;6.084;2022-07-22T14:12:37;26.24;50.46
66144;SHT31;52947;50.842;6.084;2022-07-22T14:15:06;26.17;49.39
66144;SHT31;52947;50.842;6.084;2022-07-22T14:17:35;26.53;50.59
66144;SHT31;52947;50.842;6.084;2022-07-22T14:20:04;25.86;51.14
66144;SHT31;52947;50.842;6.084;2022-07-22T14:22:35;25.73;51.59
66144;SHT31;52947;50.842;6.084;2022-07-22T14:25:04;25.69;50.85
66144;SHT31;52947;50.842;6.084;2022-07-22T14:27:32;26.32;50.92
66144;SHT31;52947;50.842;6.084;2022-07-22T14:30:00;25.74;51.70
66144;SHT31;52947;50.842;6.084;2022-07-22T14:32:28;25.54;52.17
66144;SHT31;52947;50.842;6.084;2022-07-22T14:34:56;25.54;52.04
66144;SHT31;52947;50.842;6.084;2022-07-22T14:37:24;25.12;52.42
66144;SHT31;52947;50.842;6.084;2022-07-22T14:39:54;24.96;52.65
66144;SHT31;52947;50.842;6.084;2022-07-22T14:42:22;25.23;52.44
66144;SHT31;52947;50.842;6.084;2022-07-22T14:44:51;25.32;52.47
66144;SHT31;52947;50.842;6.084;2022-07-22T14:47:18;25.53;52.20
66144;SHT31;52947;50.842;6.084;2022-07-22T14:49:46;25.09;52.81
66144;SHT31;52947;50.842;6.084;2022-07-22T14:52:14;25.05;53.28
66144;SHT31;52947;50.842;6.084;2022-07-22T14:54:42;25.47;53.07
66144;SHT31;52947;50.842;6.084;2022-07-22T14:57:11;25.62;52.32
66144;SHT31;52947;50.842;6.084;2022-07-22T14:59:39;25.38;52.78
66144;SHT31;52947;50.842;6.084;2022-07-22T15:02:07;25.16;53.27
66144;SHT31;52947;50.842;6.084;2022-07-22T15:04:35;25.12;53.59
66144;SHT31;52947;50.842;6.084;2022-07-22T15:07:03;25.51;52.99
66144;SHT31;52947;50.842;6.084;2022-07-22T15:09:31;25.65;52.29
66144;SHT31;52947;50.842;6.084;2022-07-22T15:11:59;25.86;51.25
66144;SHT31;52947;50.842;6.084;2022-07-22T15:14:28;25.93;50.82
66144;SHT31;52947;50.842;6.084;2022-07-22T15:16:56;25.96;51.00
66144;SHT31;52947;50.842;6.084;2022-07-22T15:19:24;25.62;51.78
66144;SHT31;52947;50.842;6.084;2022-07-22T15:21:53;25.43;52.11
66144;SHT31;52947;50.842;6.084;2022-07-22T15:24:21;25.26;52.68
66144;SHT31;52947;50.842;6.084;2022-07-22T15:26:50;25.08;52.35
66144;SHT31;52947;50.842;6.084;2022-07-22T15:29:18;24.95;53.85
66144;SHT31;52947;50.842;6.084;2022-07-22T15:31:47;25.11;53.49
66144;SHT31;52947;50.842;6.084;2022-07-22T15:34:15;25.08;53.12
66144;SHT31;52947;50.842;6.084;2022-07-22T15:36:44;25.07;52.92
66144;SHT31;52947;50.842;6.084;2022-07-22T15:39:12;25.09;53.76
66144;SHT31;52947;50.842;6.084;2022-07-22T15:41:40;24.87;54.50
66144;SHT31;52947;50.842;6.084;2022-07-22T15:44:08;24.43;54.07
66144;SHT31;52947;50.842;6.084;2022-07-22T15:46:36;24.40;53.96
66144;SHT31;52947;50.842;6.084;2022-07-22T15:49:06;24.53;54.27
66144;SHT31;52947;50.842;6.084;2022-07-22T15:51:34;24.43;54.69
66144;SHT31;52947;50.842;6.084;2022-07-22T15:54:02;24.23;54.33
66144;SHT31;52947;50.842;6.084;2022-07-22T15:56:30;24.00;54.98